ADDS METAR Data INFO
IDs: Format: Raw Decoded Include TAF

Data at: 0933 UTC 25 Jun 2018

KPWK 250852Z AUTO 02004KT 10SM CLR 16/14 A3011 RMK AO2 SLP194 T01610144 50007
KPWK 250752Z AUTO 03005KT 10SM CLR 16/14 A3011 RMK AO2 SLP193 T01610139
KPWK 250652Z AUTO 04005KT 10SM CLR 17/14 A3010 RMK AO2 SLP189 T01670139
KPWK 250552Z AUTO 03005KT 10SM CLR 17/14 A3009 RMK AO2 SLP186 T01670139 10211 20167 402560167 50002
KPWK 250452Z AUTO 00000KT 10SM CLR 18/14 A3010 RMK AO2 SLP190 T01780144
KPWK 250352Z AUTO 03007KT 10SM CLR 17/15 A3009 RMK AO2 SLP186 T01720150
KPWK 250252Z AUTO 02007KT 10SM CLR 18/16 A3009 RMK AO2 SLP185 T01780156 53019
KPWK 250152Z 05006KT 10SM CLR 18/16 A3006 RMK AO2 SLP176 T01830161
KPWK 250052Z 04009KT 10SM CLR 21/17 A3004 RMK AO2 SLP168 T02060172
KPWK 242352Z 04007KT 10SM CLR 22/17 A3003 RMK AO2 SLP165 T02170167 10256 20217 55001
KPWK 242252Z 02008KT 10SM CLR 23/18 A3002 RMK AO2 SLP163 T02280178
KPWK 242152Z 05010KT 10SM CLR 22/17 A3003 RMK AO2 SLP165 T02220167
KPWK 242052Z 05011KT 10SM CLR 22/16 A3003 RMK AO2 SLP166 T02220156 53010
KPWK 241952Z 08008KT 10SM CLR 25/17 A3001 RMK AO2 SLP159 T02500172
KPWK 241852Z 04008KT 10SM FEW030 24/17 A3000 RMK AO2 SLP156 T02440172
KPWK 241752Z 06008KT 10SM CLR 24/17 A3000 RMK AO2 SLP155 T02440172 10256 20200 53017
KPWK 241652Z 06005KT 10SM CLR 23/17 A2998 RMK AO2 SLP149 T02330172
KPWK 241552Z 05008KT 10SM CLR 24/17 A2996 RMK AO2 SLP142 T02390172
KPWK 241452Z 02006KT 10SM CLR 24/16 A2995 RMK AO2 SLP137 T02440161 50024
KPWK 241352Z 32007KT 10SM CLR 23/16 A2997 RMK AO2 PRESRR SLP145 T02330156
KPWK 241252Z 00000KT 10SM CLR 22/15 A2991 RMK AO2 SLP125 T02220150
KPWK 241152Z 00000KT 10SM CLR 20/14 A2988 RMK AO2 SLP114 T02000144 10200 20178 51011
KPWK 241052Z AUTO 00000KT 10SM CLR 18/14 A2987 RMK AO2 SLP112 T01830139
KPWK 240952Z AUTO 00000KT 10SM CLR 18/13 A2986 RMK AO2 SLP108 T01830133
KPWK 240852Z AUTO 31003KT 10SM CLR 18/13 A2985 RMK AO2 SLP102 T01830133 52004
KPWK 240752Z AUTO 25003KT 10SM CLR 19/13 A2984 RMK AO2 SLP100 T01890128
KPWK 240652Z AUTO 00000KT 10SM CLR 18/13 A2984 RMK AO2 SLP099 T01830133
KPWK 240552Z AUTO 00000KT 10SM CLR 18/14 A2983 RMK AO2 SLP099 T01780139 10239 20178 402780167 50008
KPWK 240452Z AUTO 02003KT 10SM CLR 19/12 A2983 RMK AO2 SLP099 T01940122
KPWK 240352Z AUTO 00000KT 10SM SCT120 20/12 A2982 RMK AO2 SLP095 T02000117
KPWK 240252Z 00000KT 10SM OVC120 21/11 A2981 RMK AO2 SLP090 T02060106 53012
KPWK 240152Z 05003KT 10SM BKN120 21/11 A2978 RMK AO2 SLP082 T02110106
KPWK 240052Z 07004KT 10SM OVC120 22/12 A2978 RMK AO2 SLP082 T02220117
KPWK 232352Z 11004KT 10SM OVC120 24/14 A2977 RMK AO2 SLP078 T02390139 10278 20239 53002
KPWK 232252Z 10006KT 10SM FEW110 24/13 A2977 RMK AO2 SLP077 T02440128
KPWK 232152Z AUTO 07007KT 050V110 10SM CLR 26/13 A2977 RMK AO2 SLP077 T02610133